Accueil
METAR-TAF:

METAR-TAF

Aéroports :

Aéroport de Sliač

Banská Bystrica, Slovaquie

latitude: 48-38-17N, longitude: 019-08-03E, altitude: 318 m

METAR: absent

Heure: 20:43 (18:43 UTC)

Prévision

Le bulletin a été fait il y a 2 heures et 13 minutes, à 16:30 UTC
Prévision valable du 19 à 18 UTC au 20 à 06 UTC
Vent 3 kt de direction variable
Visibilité 10 km ou plus
Quelques nuages à une hauteur de 5000 ft
Temporairement
du 20 à 01 UTC au 20 à 06 UTC
Visibilité: 0300 m
Nuages fragmentés à une hauteur de 100 ft
brouillard,

TAF: LZSL 191630Z 1918/2006 VRB03KT 9999 FEW050 TEMPO 2001/2006 0300 FG BKN001

Observations et prévisions météorologiques de plus de 4000 aéroports (messages METAR et TAF).

Les stations disponibles sont représentées par des disques jaunes et rouges sur la carte.

Passer la souris dessus pour voir le nom de la station.

Cliquer dessus pour voir les observations et prévisions météorologiques.

Pour changer de carte: cliquez sur les boutons verts avec une croix noire pour zoomer, sur le bouton vert avec un tiret pour effectuer un zoom arrière, ou sur les flèches vertes pour les cartes adjacentes.


METAR-TAF: